Terminal Aerodrome Forecast
Issued by NWS

Home | Current Version | Previous Version | Text Only | Print | Product List | Glossary On
Versions: 1 2 3 4 5 6 7 8 9 10 11 12 13 14 15 16 17 18 19 20 21 22 23 24 25 26 27 28 29
000
FTUS43 KDMX 301139
TAFMCW
TAF
KMCW 301139Z 3012/0112 04015KT 6SM BR VCSH FEW009 SCT017 OVC025
     FM301300 05016G23KT 6SM BR SCT008 OVC016
     FM301530 05018G25KT 6SM BR OVC008
     FM301700 06018G26KT 5SM BR VCSH OVC008
     FM010000 06014G20KT 3SM -RA BR OVC005
     FM010400 06011KT 2SM -RA BR OVC004=

USA.gov is the U.S. government's official web portal to all federal, state and local government web resources and services.